X  Stänga Metar väderdata för luftfart     ESNL Lycksele Airport
Temperatur
1°C Temperatur
-2°C Daggpunkt
81% Fuktighet



Vind
9 M/S
21 MPH
34 KM/T
18 KTS



290°
VNV
Nuvarande omständigheter

Mestadels molnigt Mestadels molnigt
Tryck 988.92 (hPa) - 29.2 (inHg)
Synlighet 6.2 (mil) - 10 (km)
Flygplats
Flygplatskod ESNL

Plats: Lycksele Airport
Distans: 35 (km)

Metar:
ESNL 152150Z AUTO 29018KT 9999 BKN048/// 01/M02 Q0989

Tid: 2021-10-15 23:50 CEST